Sepang, Malaysia
Current Conditions -  °F | °C
As of 4:30 AM on Sunday 21 Dec 2014 (Local Time) from WMKK Reporting Station
Broken Clouds Broken Clouds  
Wind Chill: 77°   Ceiling: 28000
Heat Index: 78°   Visibility: 5mi
Dew Point: 75°   Wind: 1mph
Humidity: 94%   Direction: 70°ENE
Pressure: 29.74"   Gusts: NA
Location:  2.69°N, 101.76°E
Report Text: WMKK 202030Z 07001KT 8000 FEW017CB BKN280 25/24 Q1007 NOSIG
Loading
Personal Weather Stations






























Interactive Weather Map New forecast layout! Learn more

10-Day Weather Forecast

Advertisements
Track Severe Weather on mobile